createdAt,value
2018-11-13T00:00:02.315Z,89.31
2018-11-13T00:01:02.105Z,89.73
2018-11-13T00:02:02.212Z,88.92
2018-11-13T00:03:02.936Z,89.33
2018-11-13T00:04:02.328Z,88.86
2018-11-13T00:05:02.034Z,88.62
2018-11-13T00:06:02.343Z,88.8
2018-11-13T00:07:02.121Z,88.24
2018-11-13T00:08:02.049Z,89.42
2018-11-13T00:09:02.336Z,89.36
2018-11-13T00:10:02.096Z,89.52
2018-11-13T00:11:02.178Z,89.31
2018-11-13T00:12:02.237Z,89.38
2018-11-13T00:13:02.127Z,88.78
2018-11-13T00:14:01.980Z,88.63
2018-11-13T00:15:02.285Z,88.01
2018-11-13T00:16:02.071Z,87.8
2018-11-13T00:17:02.218Z,87.89
2018-11-13T00:18:02.177Z,87.86
2018-11-13T00:19:02.075Z,89.52
2018-11-13T00:20:02.318Z,89.6
2018-11-13T00:21:02.340Z,88.61
2018-11-13T00:22:01.949Z,88.55
2018-11-13T00:23:02.118Z,88.21
2018-11-13T00:24:02.182Z,88.64
2018-11-13T00:25:01.923Z,88.23
2018-11-13T00:26:02.165Z,88.02
2018-11-13T00:27:02.060Z,88.4
2018-11-13T00:28:02.012Z,88.37
2018-11-13T00:29:02.184Z,89.38
2018-11-13T00:30:01.950Z,89.4
2018-11-13T00:31:02.069Z,89.49
2018-11-13T00:32:02.110Z,89.2
2018-11-13T00:33:01.942Z,89.42
2018-11-13T00:34:02.059Z,89.87
2018-11-13T00:35:01.993Z,89.68
2018-11-13T00:36:02.035Z,89.41
2018-11-13T00:37:02.078Z,89.34
2018-11-13T00:38:02.014Z,88.65
2018-11-13T00:39:02.235Z,88.45
2018-11-13T00:40:01.986Z,88.26
2018-11-13T00:41:01.931Z,89.6
2018-11-13T00:42:01.909Z,89.96
2018-11-13T00:43:02.082Z,90.3
2018-11-13T00:44:01.941Z,90.6
2018-11-13T00:45:02.127Z,90.89
2018-11-13T00:46:02.537Z,91.42
2018-11-13T00:47:01.911Z,91.68
2018-11-13T00:48:01.954Z,91.28
2018-11-13T00:49:03.423Z,90.84
2018-11-13T00:50:02.216Z,90.89
2018-11-13T00:51:02.125Z,90.94
2018-11-13T00:52:02.233Z,90.63
2018-11-13T00:53:02.463Z,90.44
2018-11-13T00:54:02.024Z,90.04
2018-11-13T00:55:04.851Z,90.17
2018-11-13T00:56:02.061Z,90.34
2018-11-13T00:57:02.187Z,89.83
2018-11-13T00:58:01.976Z,89.95
2018-11-13T00:59:01.988Z,89.81
2018-11-13T01:00:02.325Z,89.41
2018-11-13T01:01:02.313Z,90.17
2018-11-13T01:02:02.332Z,89.54
2018-11-13T01:03:02.037Z,90.12
2018-11-13T01:04:02.031Z,89.48
2018-11-13T01:05:02.742Z,90.18
2018-11-13T01:06:02.040Z,90.22
2018-11-13T01:07:01.923Z,90.64
2018-11-13T01:08:02.145Z,90.1
2018-11-13T01:09:01.916Z,89.64
2018-11-13T01:10:02.031Z,89.9
2018-11-13T01:11:01.894Z,89.01
2018-11-13T01:12:02.171Z,89.37
2018-11-13T01:13:02.033Z,89.8
2018-11-13T01:14:01.952Z,89.5
2018-11-13T01:15:02.319Z,90.53
2018-11-13T01:16:01.893Z,90.99
2018-11-13T01:17:02.209Z,91.02
2018-11-13T01:18:02.510Z,90.54
2018-11-13T01:19:02.836Z,89.96
2018-11-13T01:20:02.057Z,90.16
2018-11-13T01:21:02.232Z,90.65
2018-11-13T01:22:01.946Z,89.98
2018-11-13T01:23:02.161Z,89.56
2018-11-13T01:24:03.924Z,89.38
2018-11-13T01:25:02.168Z,89.16
2018-11-13T01:26:02.374Z,89.14
2018-11-13T01:27:02.343Z,89.46
2018-11-13T01:28:01.892Z,89.27
2018-11-13T01:29:02.100Z,89.36
2018-11-13T01:30:02.690Z,89.13
2018-11-13T01:31:02.000Z,90.07
2018-11-13T01:32:01.948Z,90.3
2018-11-13T01:33:02.020Z,90.45
2018-11-13T01:34:02.378Z,90.83
2018-11-13T01:35:02.673Z,90.55
2018-11-13T01:36:01.923Z,89.95
2018-11-13T01:37:01.880Z,89.61
2018-11-13T01:38:02.245Z,89.66
2018-11-13T01:39:01.977Z,89.56
2018-11-13T01:40:01.942Z,89.98
2018-11-13T01:41:02.190Z,90.08
2018-11-13T01:42:01.824Z,89.97
2018-11-13T01:43:02.078Z,89.92
2018-11-13T01:44:02.074Z,90.33
2018-11-13T01:45:01.830Z,90.87
2018-11-13T01:46:02.211Z,90.05
2018-11-13T01:47:02.059Z,90.06
2018-11-13T01:48:02.560Z,90.6
2018-11-13T01:49:01.891Z,90.31
2018-11-13T01:50:01.817Z,90.1
2018-11-13T01:51:02.138Z,90.63
2018-11-13T01:52:02.012Z,90.22
2018-11-13T01:53:02.055Z,89.98
2018-11-13T01:54:02.078Z,90.29
2018-11-13T01:55:02.352Z,91
2018-11-13T01:56:01.816Z,90.86
2018-11-13T01:57:02.059Z,91.6
2018-11-13T01:58:01.864Z,91.97
2018-11-13T01:59:01.822Z,91.79
2018-11-13T02:00:01.781Z,91.3
2018-11-13T02:01:01.834Z,90.88
2018-11-13T02:02:01.838Z,90.5
2018-11-13T02:03:01.819Z,91.61
2018-11-13T02:04:02.121Z,91.73
2018-11-13T02:05:01.776Z,91.89
2018-11-13T02:06:01.828Z,91.59
2018-11-13T02:07:01.878Z,91.08
2018-11-13T02:08:01.801Z,91.24
2018-11-13T02:09:01.788Z,90.44
2018-11-13T02:10:01.832Z,90.7
2018-11-13T02:11:01.839Z,91.04
2018-11-13T02:12:01.811Z,91
2018-11-13T02:13:01.832Z,91.21
2018-11-13T02:14:01.789Z,91.52
2018-11-13T02:15:01.794Z,91.54
2018-11-13T02:16:01.789Z,91.43
2018-11-13T02:17:01.793Z,91.29
2018-11-13T02:18:02.244Z,91.19
2018-11-13T02:19:01.864Z,90.9
2018-11-13T02:20:02.131Z,90.87
2018-11-13T02:21:02.028Z,91.37
2018-11-13T02:22:01.762Z,91.33
2018-11-13T02:23:02.056Z,91.58
2018-11-13T02:24:01.857Z,91.17
2018-11-13T02:25:01.816Z,91.63
2018-11-13T02:26:02.010Z,92.03
2018-11-13T02:27:02.000Z,91.41
2018-11-13T02:28:02.086Z,91.17
2018-11-13T02:29:02.291Z,90.75
2018-11-13T02:30:01.876Z,90.66
2018-11-13T02:31:01.765Z,90.67
2018-11-13T02:32:01.802Z,90.45
2018-11-13T02:33:02.026Z,90.86
2018-11-13T02:34:02.127Z,91.24
2018-11-13T02:35:02.179Z,92.02
2018-11-13T02:36:01.861Z,92.16
2018-11-13T02:37:01.806Z,91.6
2018-11-13T02:38:01.797Z,91.42
2018-11-13T02:39:01.765Z,91.09
2018-11-13T02:40:02.301Z,91.23
2018-11-13T02:41:01.962Z,91.56
2018-11-13T02:42:01.881Z,91.6
2018-11-13T02:43:02.205Z,91.11
2018-11-13T02:44:01.843Z,90.78
2018-11-13T02:45:02.099Z,90.61
2018-11-13T02:46:01.836Z,90.49
2018-11-13T02:47:01.871Z,90.71
2018-11-13T02:48:01.954Z,90.62
2018-11-13T02:49:01.864Z,91.1
2018-11-13T02:50:01.834Z,90.97
2018-11-13T02:51:01.770Z,91.46
2018-11-13T02:52:02.139Z,91.59
2018-11-13T02:53:01.763Z,91.35
2018-11-13T02:54:01.767Z,91.4
2018-11-13T02:55:02.084Z,91.59
2018-11-13T02:56:01.761Z,91.52
2018-11-13T02:57:01.742Z,91.35
2018-11-13T02:58:02.109Z,91.46
2018-11-13T02:59:01.843Z,91.58
2018-11-13T03:00:01.868Z,91.42
2018-11-13T03:01:01.701Z,91.6
2018-11-13T03:02:01.824Z,91.4
2018-11-13T03:03:01.738Z,91.25
2018-11-13T03:04:01.776Z,92.02
2018-11-13T03:05:02.073Z,92.41
2018-11-13T03:06:02.254Z,92.43
2018-11-13T03:07:01.756Z,92.84
2018-11-13T03:08:01.957Z,93.06
2018-11-13T03:09:01.984Z,93.24
2018-11-13T03:10:01.848Z,93.34
2018-11-13T03:11:01.841Z,93.27
2018-11-13T03:12:02.091Z,92.95
2018-11-13T03:13:01.770Z,92.51
2018-11-13T03:14:01.722Z,92.13
2018-11-13T03:15:01.846Z,91.88
2018-11-13T03:16:01.736Z,91.79
2018-11-13T03:17:01.859Z,91.81
2018-11-13T03:18:01.910Z,91.63
2018-11-13T03:19:01.801Z,91.44
2018-11-13T03:20:01.738Z,91.52
2018-11-13T03:21:01.970Z,91.27
2018-11-13T03:22:02.197Z,91.89
2018-11-13T03:23:01.713Z,92.19
2018-11-13T03:24:01.695Z,92.01
2018-11-13T03:25:01.858Z,92
2018-11-13T03:26:01.691Z,92.09
2018-11-13T03:27:01.869Z,91.79
2018-11-13T03:28:01.846Z,91.59
2018-11-13T03:29:01.722Z,91.93
2018-11-13T03:30:01.673Z,92.66
2018-11-13T03:31:01.950Z,92.84
2018-11-13T03:32:01.702Z,92.5
2018-11-13T03:33:01.859Z,92.83
2018-11-13T03:34:01.765Z,92.83
2018-11-13T03:35:01.688Z,92.6
2018-11-13T03:36:01.726Z,92.94
2018-11-13T03:37:01.653Z,92.54
2018-11-13T03:38:01.754Z,92.52
2018-11-13T03:39:01.678Z,92.66
2018-11-13T03:40:01.660Z,93.14
2018-11-13T03:41:01.679Z,93.53
2018-11-13T03:42:01.712Z,93.5
2018-11-13T03:43:01.674Z,93.47
2018-11-13T03:44:01.694Z,93.05
2018-11-13T03:45:01.793Z,92.75
2018-11-13T03:46:01.703Z,93.43
2018-11-13T03:47:01.723Z,92.87
2018-11-13T03:48:01.686Z,93.16
2018-11-13T03:49:02.036Z,92.76
2018-11-13T03:50:01.815Z,92.72
2018-11-13T03:51:01.990Z,92.76
2018-11-13T03:52:02.372Z,93.25
2018-11-13T03:53:02.499Z,92.54
2018-11-13T03:54:01.784Z,92.35
2018-11-13T03:55:01.802Z,92.38
2018-11-13T03:56:01.810Z,92.34
2018-11-13T03:57:01.660Z,93.42
2018-11-13T03:58:01.680Z,92.9
2018-11-13T03:59:01.746Z,92.72
2018-11-13T04:00:02.078Z,92.5
2018-11-13T04:01:01.819Z,93.09
2018-11-13T04:02:01.662Z,92.72
2018-11-13T04:03:01.729Z,92.63
2018-11-13T04:04:01.696Z,92.66
2018-11-13T04:05:01.758Z,93.24
2018-11-13T04:06:01.727Z,93.46
2018-11-13T04:07:01.768Z,93.75
2018-11-13T04:08:02.490Z,93.68
2018-11-13T04:09:01.755Z,93.91
2018-11-13T04:10:01.724Z,93.5
2018-11-13T04:11:01.810Z,93.53
2018-11-13T04:12:01.638Z,93.58
2018-11-13T04:13:01.692Z,93.3
2018-11-13T04:14:01.637Z,92.94
2018-11-13T04:15:01.652Z,93.06
2018-11-13T04:16:01.657Z,93.63
2018-11-13T04:17:01.685Z,93.77
2018-11-13T04:18:01.784Z,93.98
2018-11-13T04:19:01.771Z,94.1
2018-11-13T04:20:01.652Z,93.97
2018-11-13T04:21:01.690Z,93.79
2018-11-13T04:22:01.892Z,93.73
2018-11-13T04:23:01.718Z,93.39
2018-11-13T04:24:01.681Z,94.01
2018-11-13T04:25:02.480Z,94.09
2018-11-13T04:26:01.898Z,93.95
2018-11-13T04:27:01.851Z,93.7
2018-11-13T04:28:01.687Z,93.89
2018-11-13T04:29:01.643Z,93.98
2018-11-13T04:30:01.705Z,93.91
2018-11-13T04:31:01.682Z,93.85
2018-11-13T04:32:01.665Z,93.93
2018-11-13T04:33:01.708Z,93.97
2018-11-13T04:34:02.071Z,93.86
2018-11-13T04:35:01.754Z,93.83
2018-11-13T04:36:01.719Z,93.77
2018-11-13T04:37:01.672Z,94.27
2018-11-13T04:38:01.694Z,94.02
2018-11-13T04:39:01.670Z,93.75
2018-11-13T04:40:02.054Z,94.17
2018-11-13T04:41:01.728Z,93.78
2018-11-13T04:42:01.805Z,94.15
2018-11-13T04:43:01.684Z,94.55
2018-11-13T04:44:01.702Z,94.09
2018-11-13T04:45:01.752Z,94.04
2018-11-13T04:46:01.671Z,93.95
2018-11-13T04:47:01.832Z,94.01
2018-11-13T04:48:01.706Z,93.77
2018-11-13T04:49:01.684Z,93.93
2018-11-13T04:50:01.787Z,93.91
2018-11-13T04:51:01.654Z,93.78
2018-11-13T04:52:01.729Z,93.65
2018-11-13T04:53:01.808Z,93.68
2018-11-13T04:54:01.835Z,93.97
2018-11-13T04:55:01.887Z,94
2018-11-13T04:56:01.711Z,94.08
2018-11-13T04:57:01.718Z,94.1
2018-11-13T04:58:01.720Z,94.1
2018-11-13T04:59:01.753Z,93.68
2018-11-13T05:00:01.956Z,93.94
2018-11-13T05:01:01.591Z,94.21
2018-11-13T05:02:01.601Z,94.06
2018-11-13T05:03:02.082Z,94.07
2018-11-13T05:04:01.559Z,94.11
2018-11-13T05:05:01.983Z,93.75
2018-11-13T05:06:01.594Z,94.18
2018-11-13T05:07:01.576Z,94.29
2018-11-13T05:08:01.589Z,94.46
2018-11-13T05:09:01.529Z,94.29
2018-11-13T05:10:02.249Z,94.35
2018-11-13T05:11:01.550Z,94.33
2018-11-13T05:12:01.556Z,94.03
2018-11-13T05:13:01.590Z,93.98
2018-11-13T05:14:01.604Z,93.75
2018-11-13T05:15:01.575Z,93.89
2018-11-13T05:16:01.569Z,94.45
2018-11-13T05:17:01.554Z,94.41
2018-11-13T05:18:01.545Z,94.29
2018-11-13T05:19:01.568Z,94.34
2018-11-13T05:20:01.635Z,94.36
2018-11-13T05:21:01.572Z,94.43
2018-11-13T05:22:01.609Z,94.37
2018-11-13T05:23:01.907Z,94.45
2018-11-13T05:24:01.536Z,94.45
2018-11-13T05:25:01.663Z,94.28
2018-11-13T05:26:02.387Z,94.3
2018-11-13T05:27:01.560Z,94.04
2018-11-13T05:28:01.635Z,94.11
2018-11-13T05:29:01.845Z,94.2
2018-11-13T05:30:01.752Z,94.32
2018-11-13T05:31:01.607Z,94.32
2018-11-13T05:32:01.637Z,94.26
2018-11-13T05:33:01.742Z,94.61
2018-11-13T05:34:01.589Z,94.85
2018-11-13T05:35:01.734Z,94.91
2018-11-13T05:36:01.657Z,94.89
2018-11-13T05:37:01.564Z,94.93
2018-11-13T05:38:01.705Z,95.24
2018-11-13T05:39:01.590Z,95.05
2018-11-13T05:40:01.722Z,95.14
2018-11-13T05:41:01.675Z,94.87
2018-11-13T05:42:01.567Z,94.8
2018-11-13T05:43:01.533Z,94.91
2018-11-13T05:44:01.608Z,95.09
2018-11-13T05:45:01.735Z,95.25
2018-11-13T05:46:01.493Z,95.4
2018-11-13T05:47:01.849Z,95.29
2018-11-13T05:48:01.588Z,95.21
2018-11-13T05:49:01.781Z,95.02
2018-11-13T05:50:01.660Z,94.77
2018-11-13T05:51:01.542Z,94.94
2018-11-13T05:52:01.537Z,94.9
2018-11-13T05:53:01.543Z,95.06
2018-11-13T05:54:01.466Z,95.11
2018-11-13T05:55:01.527Z,94.94
2018-11-13T05:56:01.545Z,95.28
2018-11-13T05:57:01.739Z,95.32
2018-11-13T05:58:01.602Z,95.25
2018-11-13T05:59:01.654Z,95.15
2018-11-13T06:00:01.930Z,95.31
2018-11-13T06:01:01.567Z,95.33
2018-11-13T06:02:01.853Z,95.5
2018-11-13T06:03:01.531Z,95.43
2018-11-13T06:04:01.453Z,95.36
2018-11-13T06:05:01.687Z,95.4
2018-11-13T06:06:01.533Z,95.15
2018-11-13T06:07:01.538Z,94.97
2018-11-13T06:08:01.825Z,95.32
2018-11-13T06:09:01.588Z,95.4
2018-11-13T06:10:01.494Z,95.35
2018-11-13T06:11:01.951Z,95.34
2018-11-13T06:12:01.549Z,95.27
2018-11-13T06:13:01.519Z,95.23
2018-11-13T06:14:02.053Z,95.33
2018-11-13T06:15:01.528Z,95.18
2018-11-13T06:16:01.518Z,95.32
2018-11-13T06:17:01.783Z,95.38
2018-11-13T06:18:01.863Z,95.34
2018-11-13T06:19:01.526Z,95.31
2018-11-13T06:20:01.701Z,95.28
2018-11-13T06:21:01.519Z,95.51
2018-11-13T06:22:01.725Z,95.33
2018-11-13T06:23:02.425Z,95.3
2018-11-13T06:24:01.574Z,95.21
2018-11-13T06:25:01.633Z,95.19
2018-11-13T06:26:01.742Z,95.12
2018-11-13T06:27:01.446Z,95.03
2018-11-13T06:28:01.804Z,94.98
2018-11-13T06:29:01.525Z,95.34
2018-11-13T06:30:01.516Z,95.18
2018-11-13T06:31:01.646Z,95.01
2018-11-13T06:32:01.541Z,94.98
2018-11-13T06:33:01.585Z,95.03
2018-11-13T06:34:01.456Z,95
2018-11-13T06:35:01.452Z,94.82
2018-11-13T06:36:02.099Z,94.73
2018-11-13T06:37:01.479Z,94.59
2018-11-13T06:38:01.710Z,94.67
2018-11-13T06:39:01.735Z,94.67
2018-11-13T06:40:01.450Z,94.7
2018-11-13T06:41:01.446Z,94.5
2018-11-13T06:42:01.435Z,94.47
2018-11-13T06:43:01.874Z,94.32
2018-11-13T06:44:01.416Z,94.35
2018-11-13T06:45:01.534Z,94.33
2018-11-13T06:46:01.627Z,94.33
2018-11-13T06:47:01.437Z,94.27
2018-11-13T06:48:01.463Z,94.32
2018-11-13T06:49:01.728Z,94.29
2018-11-13T06:50:01.421Z,94.34
2018-11-13T06:51:01.439Z,94.19
2018-11-13T06:52:01.721Z,94.35
2018-11-13T06:53:01.410Z,94.19
2018-11-13T06:54:01.425Z,94.19
2018-11-13T06:55:01.424Z,94.22
2018-11-13T06:56:01.405Z,94.25
2018-11-13T06:57:01.650Z,94.32
2018-11-13T06:58:01.404Z,94.36
2018-11-13T06:59:01.398Z,94.3
2018-11-13T07:00:01.621Z,94.08
2018-11-13T07:01:01.693Z,93.92
2018-11-13T07:02:01.433Z,93.95
2018-11-13T07:03:01.488Z,93.85
2018-11-13T07:04:01.419Z,93.93
2018-11-13T07:05:01.931Z,93.92
2018-11-13T07:06:01.423Z,93.93
2018-11-13T07:07:02.031Z,94.18
2018-11-13T07:08:01.517Z,94.18
2018-11-13T07:09:01.415Z,94.06
2018-11-13T07:10:01.419Z,94.1
2018-11-13T07:11:01.696Z,94.38
2018-11-13T07:12:01.604Z,94.25
2018-11-13T07:13:01.515Z,94.27
2018-11-13T07:14:01.550Z,94.22
2018-11-13T07:15:01.552Z,94.2
2018-11-13T07:16:01.598Z,94.13
2018-11-13T07:17:01.387Z,94.15
2018-11-13T07:18:01.847Z,94.32
2018-11-13T07:19:01.375Z,94.14
2018-11-13T07:20:01.400Z,94.16
2018-11-13T07:21:01.482Z,94.22
2018-11-13T07:22:01.440Z,94.27
2018-11-13T07:23:01.450Z,94.09
2018-11-13T07:24:01.526Z,94.46
2018-11-13T07:25:01.734Z,94.27
2018-11-13T07:26:01.414Z,94.2
2018-11-13T07:27:01.709Z,94.11
2018-11-13T07:28:02.573Z,94.13
2018-11-13T07:29:01.445Z,94.09
2018-11-13T07:30:01.595Z,94.12
2018-11-13T07:31:01.611Z,93.94
2018-11-13T07:32:01.579Z,94.16
2018-11-13T07:33:01.566Z,94.4
2018-11-13T07:34:01.529Z,94.15
2018-11-13T07:35:01.739Z,93.78
2018-11-13T07:36:01.608Z,93.71
2018-11-13T07:37:01.395Z,93.49
2018-11-13T07:38:01.542Z,93.32
2018-11-13T07:39:01.443Z,93.2
2018-11-13T07:40:01.409Z,93.15
2018-11-13T07:41:01.849Z,93.2
2018-11-13T07:42:01.499Z,93.38
2018-11-13T07:43:01.406Z,93.3
2018-11-13T07:44:01.812Z,93.18
2018-11-13T07:45:01.685Z,93.25
2018-11-13T07:46:01.400Z,93.1
2018-11-13T07:47:01.867Z,92.87
2018-11-13T07:48:01.896Z,92.83
2018-11-13T07:49:01.408Z,92.91
2018-11-13T07:50:01.522Z,92.78
2018-11-13T07:51:01.544Z,92.28
2018-11-13T07:52:01.408Z,92.36
2018-11-13T07:53:01.543Z,92.39
2018-11-13T07:54:02.071Z,92.35
2018-11-13T07:55:01.565Z,92.13
2018-11-13T07:56:01.439Z,91.82
2018-11-13T07:57:01.513Z,91.84
2018-11-13T07:58:01.400Z,92.09
2018-11-13T07:59:01.372Z,92.06
2018-11-13T08:00:01.674Z,91.99
2018-11-13T08:01:01.445Z,91.83
2018-11-13T08:02:01.360Z,91.96
2018-11-13T08:03:01.301Z,92.11
2018-11-13T08:04:01.376Z,92.36
2018-11-13T08:05:01.650Z,92.12
2018-11-13T08:06:01.711Z,92.28
2018-11-13T08:07:01.436Z,92.38
2018-11-13T08:08:01.387Z,92.57
2018-11-13T08:09:01.428Z,92.49
2018-11-13T08:10:01.277Z,92.64
2018-11-13T08:11:01.386Z,92.89
2018-11-13T08:12:01.427Z,92.71
2018-11-13T08:13:02.138Z,92.74
2018-11-13T08:14:01.385Z,92.9
2018-11-13T08:15:01.357Z,92.86
2018-11-13T08:16:01.502Z,92.68
2018-11-13T08:17:01.319Z,92.95
2018-11-13T08:18:01.336Z,92.61
2018-11-13T08:19:01.345Z,92.63
2018-11-13T08:20:01.306Z,92.41
2018-11-13T08:21:01.487Z,92.39
2018-11-13T08:22:01.624Z,92.27
2018-11-13T08:23:01.371Z,92.48
2018-11-13T08:24:01.256Z,92.72
2018-11-13T08:25:01.432Z,92.87
2018-11-13T08:26:01.271Z,92.9
2018-11-13T08:27:01.763Z,92.33
2018-11-13T08:28:01.502Z,92.24
2018-11-13T08:29:02.613Z,92.01
2018-11-13T08:30:01.269Z,92.13
2018-11-13T08:31:01.294Z,92.45
2018-11-13T08:32:01.323Z,92.22
2018-11-13T08:33:01.322Z,92.12
2018-11-13T08:34:01.689Z,91.82
2018-11-13T08:35:02.160Z,91.96
2018-11-13T08:36:01.245Z,92.2
2018-11-13T08:37:01.308Z,91.91
2018-11-13T08:38:01.455Z,92.03
2018-11-13T08:39:01.348Z,91.94
2018-11-13T08:40:01.270Z,92.17
2018-11-13T08:41:01.274Z,91.96
2018-11-13T08:42:01.353Z,91.87
2018-11-13T08:43:01.418Z,91.82
2018-11-13T08:44:02.022Z,91.91
2018-11-13T08:45:01.287Z,92.11
2018-11-13T08:46:01.219Z,92
2018-11-13T08:47:01.269Z,91.7
2018-11-13T08:48:02.098Z,91.68
2018-11-13T08:49:01.401Z,91.79
2018-11-13T08:50:01.279Z,91.78
2018-11-13T08:51:01.356Z,91.49
2018-11-13T08:52:01.628Z,91.72
2018-11-13T08:53:01.302Z,92.04
2018-11-13T08:54:01.265Z,91.9
2018-11-13T08:55:01.661Z,91.95
2018-11-13T08:56:01.526Z,92.05
2018-11-13T08:57:01.233Z,92.09
2018-11-13T08:58:01.229Z,92.27
2018-11-13T08:59:02.100Z,92.28
2018-11-13T09:00:01.240Z,92.09
2018-11-13T09:01:01.312Z,91.87
2018-11-13T09:02:01.438Z,92
2018-11-13T09:03:01.385Z,92.05
2018-11-13T09:04:01.492Z,92.22
2018-11-13T09:05:02.042Z,92.33
2018-11-13T09:06:01.788Z,92.19
2018-11-13T09:07:01.488Z,92.07
2018-11-13T09:08:01.282Z,92.28
2018-11-13T09:09:01.377Z,92.07
2018-11-13T09:10:01.215Z,92.22
2018-11-13T09:11:01.445Z,92.21
2018-11-13T09:12:02.983Z,92.1
2018-11-13T09:13:01.494Z,91.99
2018-11-13T09:14:01.220Z,91.86
2018-11-13T09:15:01.214Z,91.87
2018-11-13T09:16:01.511Z,91.94
2018-11-13T09:17:01.488Z,91.98
2018-11-13T09:18:01.851Z,91.96
2018-11-13T09:19:01.813Z,91.69
2018-11-13T09:20:01.556Z,91.92
2018-11-13T09:21:01.574Z,91.81
2018-11-13T09:22:01.417Z,91.69
2018-11-13T09:23:01.323Z,91.94
2018-11-13T09:24:01.247Z,91.97
2018-11-13T09:25:01.183Z,92.06
2018-11-13T09:26:01.242Z,92.01
2018-11-13T09:27:01.197Z,92.1
2018-11-13T09:28:01.254Z,92
2018-11-13T09:29:01.220Z,92.02
2018-11-13T09:30:02.001Z,92.2
2018-11-13T09:31:02.578Z,92.09
2018-11-13T09:32:01.268Z,92.09
2018-11-13T09:33:01.817Z,92.35
2018-11-13T09:34:01.363Z,91.91
2018-11-13T09:35:01.488Z,91.76
2018-11-13T09:36:01.324Z,91.9
2018-11-13T09:37:01.506Z,91.89
2018-11-13T09:38:01.260Z,92.14
2018-11-13T09:39:01.218Z,92.13
2018-11-13T09:40:01.465Z,92.11
2018-11-13T09:41:01.248Z,92.15
2018-11-13T09:42:01.437Z,91.95
2018-11-13T09:43:01.273Z,91.65
2018-11-13T09:44:01.472Z,91.91
2018-11-13T09:45:02.132Z,91.99
2018-11-13T09:46:01.849Z,91.63
2018-11-13T09:47:01.184Z,91.68
2018-11-13T09:48:01.230Z,91.7
2018-11-13T09:49:01.216Z,91.81
2018-11-13T09:50:01.271Z,91.65
2018-11-13T09:51:01.264Z,91.67
2018-11-13T09:52:01.179Z,91.89
2018-11-13T09:53:01.172Z,91.71
2018-11-13T09:54:01.196Z,91.96
2018-11-13T09:55:01.221Z,91.83
2018-11-13T09:56:01.248Z,91.82
2018-11-13T09:57:01.333Z,91.65
2018-11-13T09:58:01.172Z,91.55
2018-11-13T09:59:01.611Z,91.7
2018-11-13T10:00:01.916Z,91.84
2018-11-13T10:01:02.942Z,91.9
2018-11-13T10:02:04.447Z,91.82
2018-11-13T10:03:05.512Z,91.57
2018-11-13T10:04:04.570Z,91.54
2018-11-13T10:05:05.963Z,91.37
2018-11-13T10:06:01.553Z,91.31
2018-11-13T10:07:01.565Z,91.57
2018-11-13T10:08:01.474Z,91.5
2018-11-13T10:09:01.176Z,91.47
2018-11-13T10:10:01.382Z,91.59
2018-11-13T10:11:01.338Z,91.33
2018-11-13T10:12:01.215Z,91.35
2018-11-13T10:13:01.494Z,91.42
2018-11-13T10:14:01.566Z,91.54
2018-11-13T10:15:01.295Z,91.56
2018-11-13T10:16:01.183Z,91.66
2018-11-13T10:17:01.277Z,91.3
2018-11-13T10:18:02.313Z,91.36
2018-11-13T10:19:01.415Z,91.24
2018-11-13T10:20:01.130Z,91.13
2018-11-13T10:21:01.164Z,91.37
2018-11-13T10:22:01.257Z,91.36
2018-11-13T10:23:01.468Z,91.47
2018-11-13T10:24:01.255Z,91.42
2018-11-13T10:25:01.292Z,91.43
2018-11-13T10:26:01.161Z,91.22
2018-11-13T10:27:01.778Z,91.38
2018-11-13T10:28:01.750Z,91.45
2018-11-13T10:29:01.228Z,91.04
2018-11-13T10:30:02.176Z,90.97
2018-11-13T10:31:01.207Z,91.11
2018-11-13T10:32:01.134Z,91.24
2018-11-13T10:33:01.410Z,90.87
2018-11-13T10:34:01.559Z,90.86
2018-11-13T10:35:01.251Z,90.83
2018-11-13T10:36:01.213Z,90.79
2018-11-13T10:37:01.938Z,90.61
2018-11-13T10:38:01.258Z,90.09
2018-11-13T10:39:01.451Z,90.18
2018-11-13T10:40:01.581Z,90.05
2018-11-13T10:41:01.859Z,89.25
2018-11-13T10:42:01.199Z,89.34
2018-11-13T10:43:01.197Z,88.39
2018-11-13T10:44:01.196Z,89.11
2018-11-13T10:45:01.124Z,89.3
2018-11-13T10:46:01.147Z,88.96
2018-11-13T10:47:01.186Z,89.49
2018-11-13T10:48:01.225Z,89.84
2018-11-13T10:49:01.501Z,89.74
2018-11-13T10:50:01.446Z,89.07
2018-11-13T10:51:01.232Z,88.76
2018-11-13T10:52:01.269Z,89.14
2018-11-13T10:53:01.132Z,89.23
2018-11-13T10:54:01.133Z,89.09
2018-11-13T10:55:01.211Z,88.93
2018-11-13T10:56:01.178Z,89.33
2018-11-13T10:57:01.683Z,88.92
2018-11-13T10:58:01.224Z,88.53
2018-11-13T10:59:01.151Z,88.94
2018-11-13T11:00:01.216Z,88.43
2018-11-13T11:01:01.370Z,89
2018-11-13T11:02:01.393Z,88.67
2018-11-13T11:03:01.917Z,88.8
2018-11-13T11:04:01.350Z,88.98
2018-11-13T11:05:01.220Z,89.22
2018-11-13T11:07:01.445Z,89.18
2018-11-13T11:08:01.122Z,88.76
2018-11-13T11:09:01.089Z,88.72
2018-11-13T11:10:01.544Z,88.6
2018-11-13T11:11:01.378Z,88.87
2018-11-13T11:12:01.119Z,88.58
2018-11-13T11:13:02.140Z,88.36
2018-11-13T11:14:02.589Z,88.11
2018-11-13T11:15:01.166Z,87.73
2018-11-13T11:16:01.352Z,87.51
2018-11-13T11:17:01.155Z,87.61
2018-11-13T11:18:01.443Z,88
2018-11-13T11:19:02.284Z,87.63
2018-11-13T11:20:01.070Z,87.79
2018-11-13T11:21:01.119Z,87.41
2018-11-13T11:22:01.085Z,87.67
2018-11-13T11:23:01.255Z,87.69
2018-11-13T11:24:01.391Z,87.07
2018-11-13T11:25:01.317Z,87.04
2018-11-13T11:26:01.117Z,86.31
2018-11-13T11:27:01.047Z,86.05
2018-11-13T11:28:01.301Z,86.49
2018-11-13T11:29:01.117Z,86.78
2018-11-13T11:30:01.125Z,86.38
2018-11-13T11:31:01.611Z,86.41
2018-11-13T11:32:01.017Z,86.16
2018-11-13T11:33:01.105Z,86.28
2018-11-13T11:34:01.099Z,86.3
2018-11-13T11:35:01.312Z,86.66
2018-11-13T11:36:01.341Z,87.21
2018-11-13T11:37:01.076Z,86.91
2018-11-13T11:38:01.100Z,87.12
2018-11-13T11:39:02.479Z,87.54
2018-11-13T11:40:01.046Z,86.39
2018-11-13T11:41:01.112Z,86.18
2018-11-13T11:42:01.017Z,85.87
2018-11-13T11:43:01.134Z,85.46
2018-11-13T11:44:01.004Z,85.35
2018-11-13T11:45:01.499Z,85.72
2018-11-13T11:47:01.605Z,85.14
2018-11-13T11:48:00.999Z,85.52
2018-11-13T11:49:01.151Z,85.42
2018-11-13T11:50:01.170Z,84.74
2018-11-13T11:51:01.587Z,85.84
2018-11-13T11:52:01.691Z,85.51
2018-11-13T11:53:01.028Z,85.67
2018-11-13T11:54:01.930Z,85.01
2018-11-13T11:55:01.250Z,84.99
2018-11-13T11:56:01.827Z,84.87
2018-11-13T11:57:01.150Z,84.54
2018-11-13T11:58:01.409Z,84.67
2018-11-13T11:59:01.224Z,84.25
2018-11-13T12:00:01.410Z,84.73
2018-11-13T12:01:01.372Z,85.42
2018-11-13T12:02:01.172Z,85.22
2018-11-13T12:03:01.191Z,84.3
2018-11-13T12:04:01.390Z,84.83
2018-11-13T12:05:01.106Z,85.03
2018-11-13T12:06:01.019Z,84.9
2018-11-13T12:07:00.983Z,84.49
2018-11-13T12:08:01.058Z,84.81
2018-11-13T12:09:01.085Z,84.34
2018-11-13T12:10:01.348Z,84.97
2018-11-13T12:11:00.984Z,84.7
2018-11-13T12:12:01.256Z,84.49
2018-11-13T12:13:01.115Z,84.07
2018-11-13T12:14:01.367Z,84.71
2018-11-13T12:15:01.071Z,84.93
2018-11-13T12:16:01.056Z,84.71
2018-11-13T12:17:01.188Z,84.85
2018-11-13T12:18:00.963Z,84.08
2018-11-13T12:19:02.009Z,84.25
2018-11-13T12:20:01.091Z,84.93
2018-11-13T12:21:01.286Z,84.39
2018-11-13T12:22:01.194Z,83.91
2018-11-13T12:23:00.986Z,83.74
2018-11-13T12:24:01.138Z,83.86
2018-11-13T12:25:01.058Z,83.6
2018-11-13T12:26:01.261Z,84.24
2018-11-13T12:27:00.988Z,84.46
2018-11-13T12:28:01.269Z,84.52
2018-11-13T12:29:01.067Z,84.12
2018-11-13T12:30:01.035Z,84.25
2018-11-13T12:31:01.215Z,83.99
2018-11-13T12:32:01.341Z,83.83
2018-11-13T12:33:01.297Z,84.02
2018-11-13T12:34:01.237Z,83.43
2018-11-13T12:35:01.088Z,84.05
2018-11-13T12:36:01.094Z,84.12
2018-11-13T12:37:01.103Z,83.81
2018-11-13T12:38:01.238Z,84.34
2018-11-13T12:39:01.102Z,83.83
2018-11-13T12:40:01.016Z,83.69
2018-11-13T12:41:01.989Z,83.73
2018-11-13T12:42:01.397Z,83.06
2018-11-13T12:43:01.000Z,82.88
2018-11-13T12:44:01.058Z,82.75
2018-11-13T12:45:01.147Z,83.25
2018-11-13T12:46:01.353Z,82.51
2018-11-13T12:47:01.069Z,83.03
2018-11-13T12:48:01.066Z,83.11
2018-11-13T12:49:02.376Z,82.6
2018-11-13T12:50:01.483Z,82.4
2018-11-13T12:51:01.264Z,82.29
2018-11-13T12:52:01.222Z,82.78
2018-11-13T12:53:00.909Z,83.08
2018-11-13T12:54:01.047Z,82.87
2018-11-13T12:55:00.982Z,82.24
2018-11-13T12:56:01.277Z,82.53
2018-11-13T12:57:00.962Z,81.4
2018-11-13T12:58:00.948Z,80.61